createdAt,value
2023-02-12T00:01:33.878Z,3.25
2023-02-12T00:04:02.442Z,3.22
2023-02-12T00:06:32.448Z,3.67
2023-02-12T00:09:00.795Z,3.40
2023-02-12T00:11:30.697Z,2.97
2023-02-12T00:13:59.689Z,2.92
2023-02-12T00:16:29.970Z,2.85
2023-02-12T00:18:59.403Z,2.83
2023-02-12T00:21:28.455Z,2.97
2023-02-12T00:23:58.853Z,3.13
2023-02-12T00:26:27.240Z,2.90
2023-02-12T00:28:56.072Z,2.95
2023-02-12T00:31:26.673Z,2.50
2023-02-12T00:33:55.333Z,2.45
2023-02-12T00:36:25.859Z,2.38
2023-02-12T00:38:55.369Z,2.38
2023-02-12T00:41:25.678Z,2.47
2023-02-12T00:43:54.273Z,2.70
2023-02-12T00:46:23.109Z,2.72
2023-02-12T00:48:51.610Z,2.70
2023-02-12T00:51:19.921Z,2.40
2023-02-12T00:53:48.281Z,2.35
2023-02-12T00:56:16.713Z,2.53
2023-02-12T00:58:46.481Z,2.13
2023-02-12T01:01:15.032Z,2.50
2023-02-12T01:03:43.614Z,2.45
2023-02-12T01:06:12.033Z,2.05
2023-02-12T01:08:40.467Z,2.45
2023-02-12T01:11:09.114Z,2.20
2023-02-12T01:13:37.684Z,2.13
2023-02-12T01:16:11.116Z,2.33
2023-02-12T01:18:40.089Z,2.47
2023-02-12T01:21:13.781Z,2.15
2023-02-12T01:26:12.250Z,2.60
2023-02-12T01:28:41.421Z,2.45
2023-02-12T01:31:13.913Z,2.25
2023-02-12T01:33:42.518Z,2.50
2023-02-12T01:36:12.723Z,2.15
2023-02-12T01:38:41.268Z,1.83
2023-02-12T01:41:11.945Z,1.80
2023-02-12T01:43:41.244Z,2.00
2023-02-12T01:46:14.751Z,1.98
2023-02-12T01:48:46.853Z,2.28
2023-02-12T01:51:21.496Z,2.03
2023-02-12T01:53:53.570Z,1.95
2023-02-12T01:56:23.902Z,2.10
2023-02-12T01:58:55.713Z,2.13
2023-02-12T02:01:27.443Z,6.72
2023-02-12T02:03:59.613Z,14.02
2023-02-12T02:06:32.941Z,10.43
2023-02-12T02:09:02.662Z,7.63
2023-02-12T02:11:48.118Z,5.38
2023-02-12T02:14:34.806Z,10.52
2023-02-12T02:17:24.929Z,10.23
2023-02-12T02:20:16.863Z,6.93
2023-02-12T02:22:54.041Z,4.72
2023-02-12T02:25:51.932Z,3.28
2023-02-12T02:28:35.685Z,3.55
2023-02-12T02:31:16.285Z,3.28
2023-02-12T02:33:52.715Z,3.00
2023-02-12T02:36:29.267Z,3.15
2023-02-12T02:39:05.880Z,2.75
2023-02-12T02:41:40.155Z,3.00
2023-02-12T02:44:15.331Z,3.05
2023-02-12T02:46:48.631Z,3.10
2023-02-12T02:49:23.294Z,2.85
2023-02-12T02:51:57.570Z,3.47
2023-02-12T02:54:32.132Z,3.05
2023-02-12T02:57:09.885Z,3.00
2023-02-12T02:59:44.305Z,3.03
2023-02-12T03:02:19.624Z,3.00
2023-02-12T03:04:52.560Z,3.00
2023-02-12T03:07:27.146Z,2.60
2023-02-12T03:10:00.879Z,4.32
2023-02-12T03:15:04.563Z,4.22
2023-02-12T03:17:37.089Z,3.67
2023-02-12T03:20:14.396Z,3.25
2023-02-12T03:22:46.648Z,3.08
2023-02-12T03:25:17.141Z,3.22
2023-02-12T03:27:51.725Z,3.40
2023-02-12T03:30:22.081Z,2.83
2023-02-12T03:33:05.494Z,3.20
2023-02-12T03:35:39.454Z,2.80
2023-02-12T03:38:16.902Z,3.03
2023-02-12T03:40:52.794Z,2.90
2023-02-12T03:43:26.598Z,2.63
2023-02-12T03:46:00.375Z,3.10
2023-02-12T03:48:36.737Z,3.20
2023-02-12T03:51:12.578Z,2.88
2023-02-12T03:53:42.833Z,3.13
2023-02-12T03:56:14.887Z,3.17
2023-02-12T03:58:44.590Z,2.83
2023-02-12T04:01:14.409Z,3.17
2023-02-12T04:03:45.103Z,3.40
2023-02-12T04:06:22.978Z,3.17
2023-02-12T04:08:51.575Z,3.38
2023-02-12T04:11:31.472Z,3.47
2023-02-12T04:14:15.818Z,2.78
2023-02-12T04:16:50.178Z,3.17
2023-02-12T04:19:31.660Z,3.20
2023-02-12T04:22:13.642Z,3.38
2023-02-12T04:24:51.276Z,2.88
2023-02-12T04:27:26.978Z,2.97
2023-02-12T04:30:03.884Z,3.10
2023-02-12T04:32:38.757Z,2.92
2023-02-12T04:35:16.776Z,3.15
2023-02-12T04:37:50.059Z,3.33
2023-02-12T04:40:21.948Z,3.50
2023-02-12T04:42:52.247Z,3.60
2023-02-12T04:45:25.266Z,3.67
2023-02-12T04:47:53.886Z,3.30
2023-02-12T04:50:23.776Z,3.10
2023-02-12T04:52:52.228Z,3.83
2023-02-12T04:55:20.585Z,3.63
2023-02-12T04:57:49.407Z,3.53
2023-02-12T05:00:18.707Z,3.85
2023-02-12T05:02:47.406Z,4.05
2023-02-12T05:05:16.046Z,4.95
2023-02-12T05:07:45.935Z,5.10
2023-02-12T05:10:14.544Z,5.35
2023-02-12T05:12:43.031Z,5.43
2023-02-12T05:15:11.816Z,5.40
2023-02-12T05:17:40.107Z,5.40
2023-02-12T05:20:09.670Z,5.32
2023-02-12T05:22:38.032Z,5.15
2023-02-12T05:25:08.561Z,5.32
2023-02-12T05:27:36.950Z,5.40
2023-02-12T05:30:06.516Z,5.45
2023-02-12T05:32:35.159Z,4.72
2023-02-12T05:35:03.489Z,5.65
2023-02-12T05:37:31.958Z,6.07
2023-02-12T05:40:00.253Z,6.28
2023-02-12T05:42:30.945Z,7.75
2023-02-12T05:44:59.260Z,7.70
2023-02-12T05:47:27.906Z,7.13
2023-02-12T05:49:56.325Z,6.60
2023-02-12T05:52:24.668Z,6.20
2023-02-12T05:54:52.911Z,6.88
2023-02-12T05:57:21.318Z,6.47
2023-02-12T05:59:51.148Z,6.32
2023-02-12T06:02:19.661Z,5.93
2023-02-12T06:04:48.735Z,6.78
2023-02-12T06:07:17.192Z,6.35
2023-02-12T06:09:46.252Z,6.70
2023-02-12T06:12:14.626Z,7.18
2023-02-12T06:14:43.669Z,7.38
2023-02-12T06:17:13.889Z,7.22
2023-02-12T06:19:42.548Z,8.80
2023-02-12T06:22:10.885Z,7.63
2023-02-12T06:24:39.226Z,10.38
2023-02-12T06:27:07.617Z,9.82
2023-02-12T06:29:35.890Z,9.63
2023-02-12T06:32:04.810Z,11.43
2023-02-12T06:34:34.644Z,12.43
2023-02-12T06:37:03.053Z,13.77
2023-02-12T06:39:31.425Z,19.85
2023-02-12T06:41:59.782Z,19.98
2023-02-12T06:44:28.136Z,14.07
2023-02-12T06:46:57.987Z,11.02
2023-02-12T06:49:26.318Z,11.05
2023-02-12T06:51:56.023Z,10.95
2023-02-12T06:54:24.333Z,11.15
2023-02-12T06:56:53.178Z,10.95
2023-02-12T06:59:21.472Z,10.30
2023-02-12T07:01:49.963Z,10.18
2023-02-12T07:04:18.475Z,10.57
2023-02-12T07:06:46.887Z,10.75
2023-02-12T07:09:16.685Z,12.02
2023-02-12T07:11:45.018Z,11.48
2023-02-12T07:14:16.700Z,10.90
2023-02-12T07:16:45.138Z,11.75
2023-02-12T07:19:17.014Z,12.68
2023-02-12T07:21:45.608Z,11.55
2023-02-12T07:24:14.881Z,12.18
2023-02-12T07:26:44.611Z,11.82
2023-02-12T07:29:12.962Z,11.52
2023-02-12T07:31:43.079Z,11.30
2023-02-12T07:34:12.575Z,9.95
2023-02-12T07:36:42.387Z,10.52
2023-02-12T07:39:13.112Z,11.75
2023-02-12T07:41:41.509Z,9.90
2023-02-12T07:44:13.678Z,11.02
2023-02-12T07:46:46.289Z,12.82
2023-02-12T07:49:18.892Z,15.20
2023-02-12T07:51:47.930Z,14.75
2023-02-12T07:54:17.145Z,16.80
2023-02-12T07:56:47.485Z,13.73
2023-02-12T07:59:19.587Z,12.10
2023-02-12T08:01:49.297Z,11.65
2023-02-12T08:04:20.640Z,11.98
2023-02-12T08:06:50.397Z,12.60
2023-02-12T08:09:20.923Z,12.73
2023-02-12T08:11:49.622Z,11.40
2023-02-12T08:14:21.299Z,12.95
2023-02-12T08:16:50.724Z,12.60
2023-02-12T08:19:23.316Z,11.20
2023-02-12T08:21:54.234Z,9.65
2023-02-12T08:24:23.281Z,9.23
2023-02-12T08:26:52.576Z,9.30
2023-02-12T08:29:24.480Z,8.00
2023-02-12T08:31:57.828Z,8.23
2023-02-12T08:34:28.148Z,8.07
2023-02-12T08:36:58.111Z,8.18
2023-02-12T08:39:28.163Z,8.10
2023-02-12T08:41:57.179Z,7.82
2023-02-12T08:44:27.569Z,6.63
2023-02-12T08:46:56.890Z,7.20
2023-02-12T08:49:26.817Z,7.38
2023-02-12T08:51:57.114Z,7.85
2023-02-12T08:54:27.221Z,7.28
2023-02-12T08:56:57.922Z,6.45
2023-02-12T08:59:28.038Z,6.88
2023-02-12T09:01:56.981Z,6.43
2023-02-12T09:04:27.875Z,5.97
2023-02-12T09:06:57.212Z,6.35
2023-02-12T09:09:25.863Z,6.63
2023-02-12T09:11:54.228Z,5.78
2023-02-12T09:14:25.159Z,5.70
2023-02-12T09:16:57.478Z,6.15
2023-02-12T09:19:26.932Z,5.28
2023-02-12T09:21:57.053Z,5.47
2023-02-12T09:24:26.290Z,5.43
2023-02-12T09:26:54.705Z,5.47
2023-02-12T09:29:22.972Z,6.57
2023-02-12T09:31:51.498Z,4.65
2023-02-12T09:34:21.567Z,4.85
2023-02-12T09:36:49.950Z,5.00
2023-02-12T09:39:18.365Z,4.28
2023-02-12T09:42:17.925Z,5.18
2023-02-12T09:44:52.961Z,4.72
2023-02-12T09:47:28.276Z,4.15
2023-02-12T09:50:12.497Z,4.32
2023-02-12T09:52:41.773Z,5.53
2023-02-12T09:55:17.432Z,5.22
2023-02-12T09:57:48.232Z,5.80
2023-02-12T10:00:19.898Z,5.75
2023-02-12T10:02:51.972Z,4.65
2023-02-12T10:05:28.229Z,5.25
2023-02-12T10:08:17.018Z,5.60
2023-02-12T10:10:53.173Z,5.55
2023-02-12T10:13:37.968Z,4.82
2023-02-12T10:16:15.986Z,5.85
2023-02-12T10:19:02.144Z,4.80
2023-02-12T10:21:49.431Z,4.60
2023-02-12T10:25:03.114Z,4.85
2023-02-12T10:27:41.095Z,4.35
2023-02-12T10:30:19.214Z,4.38
2023-02-12T10:32:49.997Z,4.50
2023-02-12T10:35:20.124Z,5.03
2023-02-12T10:37:56.208Z,4.53
2023-02-12T10:40:30.612Z,4.05
2023-02-12T10:43:00.138Z,3.80
2023-02-12T10:45:33.940Z,3.95
2023-02-12T10:48:12.500Z,3.88
2023-02-12T10:50:52.143Z,4.32
2023-02-12T10:53:25.009Z,3.63
2023-02-12T10:56:09.920Z,3.83
2023-02-12T10:58:40.388Z,18.33
2023-02-12T11:01:18.220Z,5.20
2023-02-12T11:03:46.919Z,5.47
2023-02-12T11:06:19.341Z,4.63
2023-02-12T11:08:49.556Z,3.83
2023-02-12T11:11:22.689Z,4.15
2023-02-12T11:13:58.383Z,4.38
2023-02-12T11:16:33.211Z,3.70
2023-02-12T11:19:05.123Z,3.60
2023-02-12T11:21:34.279Z,3.55
2023-02-12T11:24:30.689Z,3.70
2023-02-12T11:27:23.936Z,4.20
2023-02-12T11:30:17.369Z,4.43
2023-02-12T11:32:46.743Z,4.70
2023-02-12T11:35:18.844Z,4.70
2023-02-12T11:37:48.760Z,5.03
2023-02-12T11:40:25.665Z,4.90
2023-02-12T11:42:56.838Z,4.60
2023-02-12T11:45:31.930Z,4.28
2023-02-12T11:48:00.931Z,4.28
2023-02-12T11:50:32.308Z,3.33
2023-02-12T11:53:03.643Z,3.33
2023-02-12T11:55:37.136Z,4.35
2023-02-12T11:58:15.811Z,4.00
2023-02-12T12:00:52.416Z,3.70
2023-02-12T12:03:26.535Z,4.45
2023-02-12T12:05:58.104Z,3.33
2023-02-12T12:08:30.344Z,3.30
2023-02-12T12:11:08.257Z,3.40
2023-02-12T12:13:40.874Z,3.00
2023-02-12T12:16:31.854Z,3.15
2023-02-12T12:19:23.410Z,3.40
2023-02-12T12:21:59.202Z,2.80
2023-02-12T12:24:36.948Z,3.00
2023-02-12T12:27:39.380Z,3.42
2023-02-12T12:30:17.908Z,3.97
2023-02-12T12:32:49.321Z,3.45
2023-02-12T12:35:22.362Z,3.25
2023-02-12T12:38:01.874Z,4.03
2023-02-12T12:40:51.370Z,3.35
2023-02-12T12:43:27.988Z,3.60
2023-02-12T12:46:26.006Z,3.80
2023-02-12T12:49:09.535Z,3.90
2023-02-12T12:52:02.349Z,3.88
2023-02-12T12:54:46.311Z,3.88
2023-02-12T12:57:28.871Z,3.75
2023-02-12T13:00:15.125Z,3.97
2023-02-12T13:03:31.570Z,3.90
2023-02-12T13:06:36.403Z,3.88
2023-02-12T13:09:21.541Z,4.32
2023-02-12T13:12:08.803Z,3.90
2023-02-12T13:14:49.299Z,4.53
2023-02-12T13:17:28.050Z,4.15
2023-02-12T13:20:04.353Z,5.50
2023-02-12T13:22:39.663Z,4.78
2023-02-12T13:25:23.221Z,3.70
2023-02-12T13:27:53.357Z,3.25
2023-02-12T13:30:26.395Z,4.55
2023-02-12T13:33:07.418Z,3.92
2023-02-12T13:35:39.332Z,3.60
2023-02-12T13:38:09.564Z,4.55
2023-02-12T13:40:38.720Z,3.83
2023-02-12T13:43:21.992Z,3.80
2023-02-12T13:45:57.179Z,4.55
2023-02-12T13:48:37.394Z,4.22
2023-02-12T13:51:14.627Z,4.78
2023-02-12T13:53:55.331Z,11.82
2023-02-12T13:56:39.271Z,8.57
2023-02-12T13:59:46.617Z,10.48
2023-02-12T14:02:44.592Z,5.50
2023-02-12T14:05:22.546Z,4.13
2023-02-12T14:07:53.307Z,4.03
2023-02-12T14:10:27.797Z,4.32
2023-02-12T14:13:00.899Z,4.45
2023-02-12T14:15:36.380Z,4.70
2023-02-12T14:18:24.814Z,4.95
2023-02-12T14:21:26.042Z,4.95
2023-02-12T14:23:56.139Z,5.68
2023-02-12T14:26:25.927Z,4.50
2023-02-12T14:28:57.840Z,3.85
2023-02-12T14:31:35.528Z,3.55
2023-02-12T14:34:52.114Z,3.90
2023-02-12T14:37:37.777Z,3.28
2023-02-12T14:40:47.231Z,3.38
2023-02-12T14:43:32.742Z,3.25
2023-02-12T14:46:51.007Z,3.13
2023-02-12T14:49:26.757Z,3.35
2023-02-12T14:52:00.901Z,3.10
2023-02-12T14:54:33.944Z,3.30
2023-02-12T14:57:09.576Z,3.25
2023-02-12T14:59:42.864Z,3.78
2023-02-12T15:02:19.136Z,3.42
2023-02-12T15:04:47.481Z,3.75
2023-02-12T15:07:24.129Z,3.72
2023-02-12T15:09:57.308Z,3.38
2023-02-12T15:12:33.429Z,3.30
2023-02-12T15:15:09.565Z,2.80
2023-02-12T15:17:42.315Z,2.85
2023-02-12T15:20:22.042Z,2.80
2023-02-12T15:22:50.408Z,3.60
2023-02-12T15:25:24.025Z,5.18
2023-02-12T15:27:57.359Z,7.32
2023-02-12T15:30:29.792Z,5.75
2023-02-12T15:33:00.864Z,4.20
2023-02-12T15:35:30.904Z,3.40
2023-02-12T15:38:02.204Z,3.08
2023-02-12T15:40:31.857Z,3.40
2023-02-12T15:43:03.576Z,3.30
2023-02-12T15:45:33.401Z,3.40
2023-02-12T15:48:12.224Z,3.40
2023-02-12T15:50:52.689Z,2.95
2023-02-12T15:53:24.517Z,3.05
2023-02-12T15:55:53.739Z,2.65
2023-02-12T15:58:26.605Z,3.13
2023-02-12T16:00:56.540Z,2.20
2023-02-12T16:03:27.176Z,2.70
2023-02-12T16:05:59.809Z,3.90
2023-02-12T16:08:28.535Z,2.60
2023-02-12T16:10:57.969Z,3.35
2023-02-12T16:13:32.702Z,4.43
2023-02-12T16:16:09.381Z,3.05
2023-02-12T16:18:38.558Z,3.50
2023-02-12T16:21:13.570Z,3.92
2023-02-12T16:23:45.189Z,3.38
2023-02-12T16:26:19.698Z,3.25
2023-02-12T16:28:52.837Z,4.38
2023-02-12T16:31:23.417Z,2.50
2023-02-12T16:33:55.775Z,2.25
2023-02-12T16:36:33.659Z,2.47
2023-02-12T16:39:05.002Z,2.45
2023-02-12T16:41:35.052Z,1.77
2023-02-12T16:44:31.233Z,1.50
2023-02-12T16:47:02.141Z,1.65
2023-02-12T16:49:30.916Z,1.35
2023-02-12T16:52:31.457Z,1.30
2023-02-12T16:55:00.342Z,0.90
2023-02-12T16:57:28.762Z,0.90
2023-02-12T16:59:58.580Z,1.08
2023-02-12T17:02:27.211Z,0.70
2023-02-12T17:04:56.749Z,0.80
2023-02-12T17:07:29.175Z,0.60
2023-02-12T17:09:57.760Z,0.90
2023-02-12T17:12:26.297Z,2.50
2023-02-12T17:14:56.086Z,1.10
2023-02-12T17:17:26.552Z,0.85
2023-02-12T17:19:55.079Z,0.65
2023-02-12T17:22:28.490Z,0.73
2023-02-12T17:24:56.855Z,0.90
2023-02-12T17:27:25.158Z,1.00
2023-02-12T17:29:53.699Z,0.90
2023-02-12T17:32:24.588Z,1.50
2023-02-12T17:34:54.448Z,1.48
2023-02-12T17:37:24.744Z,5.63
2023-02-12T17:39:53.126Z,4.95
2023-02-12T17:42:21.427Z,1.75
2023-02-12T17:44:49.877Z,1.95
2023-02-12T17:47:18.242Z,2.38
2023-02-12T17:49:46.697Z,2.72
2023-02-12T17:52:16.606Z,1.92
2023-02-12T17:54:47.231Z,1.85
2023-02-12T17:57:17.078Z,1.30
2023-02-12T17:59:45.448Z,1.50
2023-02-12T18:02:14.031Z,1.40
2023-02-12T18:04:42.390Z,2.15
2023-02-12T18:07:10.998Z,3.40
2023-02-12T18:09:40.888Z,4.20
2023-02-12T18:12:09.959Z,2.85
2023-02-12T18:14:38.335Z,3.40
2023-02-12T18:17:06.850Z,2.78
2023-02-12T18:19:35.155Z,2.67
2023-02-12T18:22:04.072Z,2.60
2023-02-12T18:24:35.459Z,2.60
2023-02-12T18:27:07.259Z,1.75
2023-02-12T18:29:36.273Z,1.98
2023-02-12T18:32:06.586Z,2.20
2023-02-12T18:34:35.329Z,2.15
2023-02-12T18:37:03.778Z,2.15
2023-02-12T18:39:32.076Z,1.23
2023-02-12T18:42:00.932Z,1.23
2023-02-12T18:44:31.085Z,1.70
2023-02-12T18:47:00.378Z,1.80
2023-02-12T18:49:29.359Z,1.92
2023-02-12T18:51:58.374Z,2.20
2023-02-12T18:54:26.744Z,2.45
2023-02-12T18:56:55.802Z,1.80
2023-02-12T18:59:26.967Z,2.90
2023-02-12T19:01:58.691Z,3.67
2023-02-12T19:04:30.594Z,4.53
2023-02-12T19:07:01.031Z,5.35
2023-02-12T19:09:30.605Z,4.25
2023-02-12T19:12:01.627Z,2.85
2023-02-12T19:14:31.512Z,3.35
2023-02-12T19:17:03.297Z,2.92
2023-02-12T19:19:32.995Z,3.00
2023-02-12T19:22:02.819Z,2.30
2023-02-12T19:24:45.938Z,1.70
2023-02-12T19:29:46.131Z,1.98
2023-02-12T19:32:17.304Z,4.90
2023-02-12T19:34:47.423Z,4.47
2023-02-12T19:37:17.078Z,2.80
2023-02-12T19:39:47.374Z,2.58
2023-02-12T19:42:18.081Z,2.22
2023-02-12T19:44:48.699Z,2.42
2023-02-12T19:47:19.675Z,3.33
2023-02-12T19:49:49.045Z,4.80
2023-02-12T19:52:20.182Z,5.55
2023-02-12T19:54:49.677Z,5.30
2023-02-12T19:57:19.472Z,4.65
2023-02-12T19:59:49.377Z,3.25
2023-02-12T20:02:20.870Z,2.67
2023-02-12T20:04:50.531Z,2.55
2023-02-12T20:07:20.233Z,2.40
2023-02-12T20:09:53.679Z,2.97
2023-02-12T20:12:23.929Z,2.65
2023-02-12T20:14:56.045Z,2.20
2023-02-12T20:17:27.894Z,2.00
2023-02-12T20:19:57.594Z,4.55
2023-02-12T20:22:27.556Z,5.10
2023-02-12T20:24:56.110Z,3.92
2023-02-12T20:27:24.703Z,2.70
2023-02-12T20:29:54.750Z,2.10
2023-02-12T20:32:24.805Z,1.98
2023-02-12T20:34:55.937Z,4.30
2023-02-12T20:37:25.792Z,1.90
2023-02-12T20:39:55.402Z,1.90
2023-02-12T20:42:25.756Z,2.17
2023-02-12T20:44:55.388Z,1.70
2023-02-12T20:47:29.227Z,2.03
2023-02-12T20:50:00.655Z,2.10
2023-02-12T20:52:30.667Z,1.70
2023-02-12T20:55:00.445Z,1.77
2023-02-12T20:57:32.072Z,2.10
2023-02-12T21:00:02.159Z,1.52
2023-02-12T21:02:32.973Z,1.80
2023-02-12T21:05:04.274Z,1.90
2023-02-12T21:07:34.761Z,1.60
2023-02-12T21:10:06.836Z,1.40
2023-02-12T21:12:36.788Z,1.50
2023-02-12T21:15:07.010Z,1.10
2023-02-12T21:17:36.763Z,1.48
2023-02-12T21:20:09.618Z,1.40
2023-02-12T21:22:39.459Z,1.30
2023-02-12T21:25:08.837Z,1.15
2023-02-12T21:27:40.767Z,1.73
2023-02-12T21:30:10.344Z,1.48
2023-02-12T21:32:40.160Z,1.45
2023-02-12T21:35:10.645Z,1.05
2023-02-12T21:37:39.062Z,1.27
2023-02-12T21:40:09.229Z,1.10
2023-02-12T21:42:38.913Z,1.25
2023-02-12T21:45:10.554Z,1.08
2023-02-12T21:47:40.022Z,1.20
2023-02-12T21:50:14.554Z,1.10
2023-02-12T21:52:43.015Z,0.90
2023-02-12T21:55:11.318Z,1.20
2023-02-12T21:57:39.920Z,1.10
2023-02-12T22:00:10.212Z,1.10
2023-02-12T22:02:38.691Z,0.82
2023-02-12T22:05:07.571Z,0.95
2023-02-12T22:07:37.354Z,0.82
2023-02-12T22:10:08.302Z,1.15
2023-02-12T22:12:37.084Z,0.80
2023-02-12T22:15:05.947Z,0.80
2023-02-12T22:17:34.587Z,0.88
2023-02-12T22:20:03.223Z,1.08
2023-02-12T22:22:31.587Z,1.10
2023-02-12T22:25:01.650Z,0.95
2023-02-12T22:27:33.240Z,1.00
2023-02-12T22:30:02.308Z,1.90
2023-02-12T22:32:31.452Z,1.00
2023-02-12T22:34:59.841Z,0.60
2023-02-12T22:37:28.941Z,0.93
2023-02-12T22:39:57.643Z,1.08
2023-02-12T22:42:27.663Z,1.20
2023-02-12T22:44:55.978Z,3.15
2023-02-12T22:47:24.877Z,1.40
2023-02-12T22:49:53.409Z,1.77
2023-02-12T22:52:22.013Z,1.83
2023-02-12T22:54:50.271Z,1.40
2023-02-12T22:57:19.107Z,2.08
2023-02-12T22:59:49.790Z,1.63
2023-02-12T23:02:18.486Z,2.08
2023-02-12T23:04:46.746Z,1.60
2023-02-12T23:07:15.092Z,1.15
2023-02-12T23:09:43.342Z,1.40
2023-02-12T23:12:11.749Z,1.40
2023-02-12T23:14:40.044Z,1.48
2023-02-12T23:17:10.304Z,1.30
2023-02-12T23:19:38.666Z,1.25
2023-02-12T23:22:07.634Z,1.10
2023-02-12T23:24:35.928Z,1.17
2023-02-12T23:27:04.335Z,1.02
2023-02-12T23:29:32.735Z,0.88
2023-02-12T23:32:01.117Z,0.88
2023-02-12T23:34:30.920Z,0.80
2023-02-12T23:36:59.258Z,1.13
2023-02-12T23:39:27.668Z,0.90
2023-02-12T23:41:56.396Z,1.83
2023-02-12T23:44:24.646Z,2.70
2023-02-12T23:46:54.045Z,9.73
2023-02-12T23:49:22.751Z,6.90
2023-02-12T23:51:52.596Z,6.85
2023-02-12T23:54:20.986Z,8.15
2023-02-12T23:56:49.761Z,7.32
2023-02-12T23:59:18.000Z,8.57
